Mist, Oregon
Current Conditions -  °F | °C
As of 2:35 AM on Tuesday 27 Jan 2015 (Local Time) from KKLS Reporting Station
Overcast Overcast  
Wind Chill: 42°   Ceiling: 600
Heat Index: 45°   Visibility: 10mi
Dew Point: 43°   Wind: 5mph
Humidity: 93%   Direction: 150°SSE
Pressure: 30.05"   Gusts: NA
Location:  46.0479°N, 123.274°W
Report Text: KKLS 271035Z 15004KT 10SM OVC006 07/06 A3005 RMK AO1
Loading
Personal Weather Stations






























Interactive Weather Map New forecast layout! Learn more

10-Day Weather Forecast

Advertisements
Track Severe Weather on mobile